createdAt,value
2018-04-27T00:02:09.426Z,96.90
2018-04-27T00:04:37.648Z,96.90
2018-04-27T00:07:05.111Z,96.80
2018-04-27T00:09:32.557Z,97.10
2018-04-27T00:12:00.018Z,97.10
2018-04-27T00:14:27.492Z,97.30
2018-04-27T00:16:54.950Z,97.20
2018-04-27T00:19:22.426Z,97.20
2018-04-27T00:21:49.878Z,97.20
2018-04-27T00:24:17.327Z,97.40
2018-04-27T00:26:44.803Z,97.50
2018-04-27T00:29:12.253Z,97.70
2018-04-27T00:31:39.715Z,97.80
2018-04-27T00:34:07.165Z,97.90
2018-04-27T00:36:34.620Z,97.90
2018-04-27T00:39:02.109Z,98.00
2018-04-27T00:41:36.944Z,98.10
2018-04-27T00:44:05.223Z,98.10
2018-04-27T00:46:33.445Z,98.40
2018-04-27T00:49:00.909Z,98.30
2018-04-27T00:51:28.379Z,98.40
2018-04-27T00:53:55.845Z,98.40
2018-04-27T00:56:23.307Z,98.60
2018-04-27T00:58:54.457Z,98.50
2018-04-27T01:01:21.933Z,98.50
2018-04-27T01:03:49.435Z,98.60
2018-04-27T01:06:16.892Z,98.80
2018-04-27T01:08:44.405Z,98.80
2018-04-27T01:11:11.883Z,98.90
2018-04-27T01:13:39.357Z,98.90
2018-04-27T01:16:06.851Z,98.80
2018-04-27T01:18:35.090Z,99.00
2018-04-27T01:21:02.606Z,98.80
2018-04-27T01:23:30.061Z,99.20
2018-04-27T01:25:57.520Z,99.30
2018-04-27T01:28:25.019Z,99.30
2018-04-27T01:30:52.553Z,99.40
2018-04-27T01:33:20.049Z,99.40
2018-04-27T01:35:47.517Z,99.40
2018-04-27T01:38:14.994Z,99.40
2018-04-27T01:40:42.503Z,99.20
2018-04-27T01:43:09.984Z,99.10
2018-04-27T01:45:37.456Z,99.10
2018-04-27T01:48:04.933Z,99.20
2018-04-27T01:50:32.379Z,98.90
2018-04-27T01:53:00.621Z,99.10
2018-04-27T01:55:28.108Z,98.80
2018-04-27T01:57:57.705Z,98.60
2018-04-27T02:00:25.172Z,98.60
2018-04-27T02:02:52.633Z,98.80
2018-04-27T02:05:20.137Z,98.90
2018-04-27T02:07:47.642Z,99.00
2018-04-27T02:10:15.135Z,99.10
2018-04-27T02:12:42.604Z,99.30
2018-04-27T02:15:10.098Z,99.30
2018-04-27T02:17:41.210Z,99.20
2018-04-27T02:20:08.672Z,99.30
2018-04-27T02:22:36.159Z,99.30
2018-04-27T02:25:04.420Z,99.50
2018-04-27T02:27:31.885Z,99.40
2018-04-27T02:29:59.401Z,99.50
2018-04-27T02:32:26.900Z,99.50
2018-04-27T02:34:54.391Z,99.60
2018-04-27T02:37:21.850Z,99.70
2018-04-27T02:39:56.547Z,99.80
2018-04-27T02:42:24.070Z,99.70
2018-04-27T02:44:51.546Z,99.60
2018-04-27T02:47:19.026Z,99.50
2018-04-27T02:49:46.507Z,99.60
2018-04-27T02:52:13.964Z,99.70
2018-04-27T02:54:41.438Z,99.70
2018-04-27T02:57:08.933Z,99.60
2018-04-27T02:59:36.433Z,99.60
2018-04-27T03:02:03.903Z,99.60
2018-04-27T03:04:38.001Z,99.60
2018-04-27T03:07:06.214Z,99.50
2018-04-27T03:09:33.699Z,99.50
2018-04-27T03:12:01.176Z,99.30
2018-04-27T03:14:28.627Z,99.30
2018-04-27T03:16:56.114Z,99.40
2018-04-27T03:19:28.065Z,99.30
2018-04-27T03:21:56.317Z,99.20
2018-04-27T03:24:23.817Z,99.10
2018-04-27T03:26:52.063Z,99.00
2018-04-27T03:29:19.517Z,98.90
2018-04-27T03:31:46.990Z,99.10
2018-04-27T03:34:21.850Z,99.20
2018-04-27T03:36:49.286Z,99.10
2018-04-27T03:39:16.762Z,99.40
2018-04-27T03:41:44.256Z,99.50
2018-04-27T03:44:11.762Z,99.70
2018-04-27T03:46:39.236Z,99.80
2018-04-27T03:49:06.729Z,99.90
2018-04-27T03:51:34.197Z,99.90
2018-04-27T03:54:01.686Z,99.90
2018-04-27T03:56:29.970Z,99.90
2018-04-27T03:58:57.448Z,99.90
2018-04-27T04:01:36.693Z,99.90
2018-04-27T04:04:16.007Z,99.90
2018-04-27T04:06:43.493Z,99.90
2018-04-27T04:09:11.790Z,99.90
2018-04-27T04:11:39.271Z,99.90
2018-04-27T04:14:07.568Z,99.90
2018-04-27T04:16:35.054Z,99.90
2018-04-27T04:19:02.555Z,99.90
2018-04-27T04:21:30.028Z,99.90
2018-04-27T04:23:58.286Z,99.90
2018-04-27T04:26:25.747Z,99.90
2018-04-27T04:28:53.260Z,99.90
2018-04-27T04:31:20.751Z,99.90
2018-04-27T04:33:48.237Z,99.90
2018-04-27T04:36:16.518Z,99.90
2018-04-27T04:38:43.976Z,99.90
2018-04-27T04:41:11.454Z,99.90
2018-04-27T04:43:38.944Z,99.90
2018-04-27T04:46:06.399Z,99.90
2018-04-27T04:48:33.923Z,99.90
2018-04-27T04:51:01.444Z,99.90
2018-04-27T04:53:28.911Z,99.90
2018-04-27T04:55:56.434Z,99.90
2018-04-27T04:58:24.711Z,99.90
2018-04-27T05:00:52.278Z,99.90
2018-04-27T05:03:19.781Z,99.90
2018-04-27T05:05:47.285Z,99.90
2018-04-27T05:08:14.791Z,99.90
2018-04-27T05:10:42.367Z,99.90
2018-04-27T05:13:09.793Z,99.80
2018-04-27T05:15:38.036Z,99.80
2018-04-27T05:18:26.070Z,99.70
2018-04-27T05:20:53.621Z,99.80
2018-04-27T05:23:21.124Z,99.70
2018-04-27T05:25:49.365Z,99.60
2018-04-27T05:28:16.961Z,99.50
2018-04-27T05:30:45.215Z,99.20
2018-04-27T05:33:12.674Z,99.50
2018-04-27T05:35:40.144Z,98.80
2018-04-27T05:38:07.638Z,98.70
2018-04-27T05:40:35.137Z,98.50
2018-04-27T05:43:02.623Z,98.40
2018-04-27T05:45:31.082Z,98.30
2018-04-27T05:47:58.566Z,98.30
2018-04-27T05:50:27.656Z,98.20
2018-04-27T05:52:55.917Z,98.00
2018-04-27T05:55:23.398Z,97.90
2018-04-27T05:57:51.912Z,97.80
2018-04-27T06:00:19.373Z,97.70
2018-04-27T06:02:46.854Z,97.30
2018-04-27T06:05:14.305Z,97.30
2018-04-27T06:07:41.790Z,97.30
2018-04-27T06:10:09.259Z,96.80
2018-04-27T06:12:36.710Z,96.40
2018-04-27T06:15:04.233Z,95.90
2018-04-27T06:17:31.723Z,95.70
2018-04-27T06:19:59.971Z,95.90
2018-04-27T06:22:27.481Z,95.50
2018-04-27T06:24:54.951Z,95.60
2018-04-27T06:27:22.426Z,95.10
2018-04-27T06:29:49.887Z,94.70
2018-04-27T06:32:17.382Z,94.70
2018-04-27T06:34:44.851Z,94.10
2018-04-27T06:37:12.313Z,93.50
2018-04-27T06:39:40.580Z,93.00
2018-04-27T06:42:08.049Z,93.00
2018-04-27T06:44:35.522Z,92.70
2018-04-27T06:47:03.038Z,92.30
2018-04-27T06:49:30.599Z,90.90
2018-04-27T06:51:58.083Z,90.10
2018-04-27T06:54:25.580Z,88.30
2018-04-27T06:56:53.066Z,84.30
2018-04-27T06:59:20.595Z,80.20
2018-04-27T07:01:48.789Z,81.20
2018-04-27T07:04:16.276Z,81.20
2018-04-27T07:06:43.734Z,83.10
2018-04-27T07:09:12.012Z,82.30
2018-04-27T07:11:40.317Z,70.50
2018-04-27T07:14:08.561Z,67.10
2018-04-27T07:16:36.054Z,67.10
2018-04-27T07:19:03.522Z,68.30
2018-04-27T07:21:31.022Z,69.10
2018-04-27T07:23:58.505Z,70.00
2018-04-27T07:26:25.982Z,68.60
2018-04-27T07:28:53.462Z,68.80
2018-04-27T07:31:21.652Z,69.20
2018-04-27T07:33:49.744Z,69.60
2018-04-27T07:36:17.329Z,67.90
2018-04-27T07:38:44.820Z,67.40
2018-04-27T07:41:12.410Z,65.60
2018-04-27T07:43:39.894Z,64.00
2018-04-27T07:46:07.390Z,66.40
2018-04-27T07:48:35.109Z,64.10
2018-04-27T07:51:02.610Z,65.50
2018-04-27T07:53:30.864Z,64.40
2018-04-27T07:55:58.346Z,64.40
2018-04-27T07:58:25.836Z,63.50
2018-04-27T08:00:53.310Z,61.70
2018-04-27T08:03:20.807Z,62.50
2018-04-27T08:05:48.293Z,61.80
2018-04-27T08:08:15.815Z,61.80
2018-04-27T08:10:43.271Z,60.40
2018-04-27T08:13:10.758Z,61.20
2018-04-27T08:15:38.274Z,62.30
2018-04-27T08:18:06.525Z,58.00
2018-04-27T08:20:33.997Z,58.00
2018-04-27T08:23:01.477Z,58.50
2018-04-27T08:25:30.609Z,58.90
2018-04-27T08:27:58.111Z,59.30
2018-04-27T08:30:25.608Z,58.00
2018-04-27T08:32:53.098Z,59.60
2018-04-27T08:35:20.579Z,59.30
2018-04-27T08:37:48.843Z,58.90
2018-04-27T08:40:16.305Z,58.90
2018-04-27T08:42:44.567Z,59.60
2018-04-27T08:45:12.041Z,59.50
2018-04-27T08:47:40.280Z,60.70
2018-04-27T08:50:07.770Z,60.70
2018-04-27T08:52:35.232Z,60.00
2018-04-27T08:55:03.496Z,61.60
2018-04-27T08:57:30.961Z,61.40
2018-04-27T08:59:59.207Z,62.20
2018-04-27T09:02:26.684Z,61.50
2018-04-27T09:04:54.163Z,61.80
2018-04-27T09:07:22.431Z,61.70
2018-04-27T09:09:50.673Z,62.00
2018-04-27T09:12:18.186Z,62.00
2018-04-27T09:14:46.445Z,63.10
2018-04-27T09:17:14.674Z,62.70
2018-04-27T09:19:42.158Z,62.60
2018-04-27T09:22:09.642Z,60.20
2018-04-27T09:24:37.116Z,59.20
2018-04-27T09:27:04.625Z,57.70
2018-04-27T09:29:32.096Z,58.10
2018-04-27T09:31:59.602Z,59.70
2018-04-27T09:34:27.073Z,60.20
2018-04-27T09:36:55.312Z,56.10
2018-04-27T09:39:23.568Z,56.50
2018-04-27T09:41:51.081Z,56.30
2018-04-27T09:44:18.618Z,58.10
2018-04-27T09:46:46.128Z,58.00
2018-04-27T09:49:13.598Z,58.60
2018-04-27T09:51:41.095Z,56.60
2018-04-27T09:54:08.579Z,54.70
2018-04-27T09:56:36.143Z,55.20
2018-04-27T09:59:03.654Z,54.70
2018-04-27T10:01:31.173Z,54.90
2018-04-27T10:03:58.717Z,55.50
2018-04-27T10:06:27.072Z,55.60
2018-04-27T10:08:54.562Z,55.70
2018-04-27T10:11:22.049Z,54.70
2018-04-27T10:13:49.533Z,56.60
2018-04-27T10:16:17.008Z,56.20
2018-04-27T10:18:45.246Z,58.20
2018-04-27T10:21:13.501Z,58.90
2018-04-27T10:23:40.981Z,58.90
2018-04-27T10:26:09.206Z,60.80
2018-04-27T10:28:36.694Z,60.80
2018-04-27T10:31:04.209Z,61.10
2018-04-27T10:33:32.432Z,61.10
2018-04-27T10:35:59.944Z,62.20
2018-04-27T10:38:27.616Z,62.70
2018-04-27T10:40:55.108Z,61.90
2018-04-27T10:43:22.583Z,63.30
2018-04-27T10:45:50.105Z,63.30
2018-04-27T10:48:17.570Z,62.40
2018-04-27T10:50:45.044Z,62.00
2018-04-27T10:53:12.553Z,62.70
2018-04-27T10:55:40.047Z,62.50
2018-04-27T10:58:07.514Z,60.90
2018-04-27T11:00:35.025Z,62.80
2018-04-27T11:03:02.489Z,64.00
2018-04-27T11:05:30.124Z,63.90
2018-04-27T11:07:57.620Z,61.40
2018-04-27T11:10:25.094Z,63.70
2018-04-27T11:12:52.608Z,62.40
2018-04-27T11:15:20.102Z,64.20
2018-04-27T11:17:47.573Z,63.20
2018-04-27T11:20:15.067Z,62.70
2018-04-27T11:22:42.572Z,62.30
2018-04-27T11:25:10.050Z,59.60
2018-04-27T11:27:37.509Z,60.90
2018-04-27T11:30:04.999Z,62.80
2018-04-27T11:32:32.544Z,57.40
2018-04-27T11:35:00.837Z,56.90
2018-04-27T11:37:28.312Z,56.70
2018-04-27T11:39:55.801Z,58.10
2018-04-27T11:42:23.301Z,57.40
2018-04-27T11:47:23.165Z,56.50
2018-04-27T11:49:50.629Z,57.10
2018-04-27T11:52:19.137Z,55.20
2018-04-27T11:54:46.614Z,56.20
2018-04-27T11:57:14.091Z,56.90
2018-04-27T11:59:41.582Z,56.50
2018-04-27T12:02:09.796Z,54.90
2018-04-27T12:04:37.266Z,54.60
2018-04-27T12:07:04.750Z,54.70
2018-04-27T12:09:32.231Z,54.90
2018-04-27T12:11:59.747Z,54.20
2018-04-27T12:14:27.218Z,54.40
2018-04-27T12:16:54.685Z,55.40
2018-04-27T12:19:22.156Z,56.30
2018-04-27T12:21:49.694Z,56.50
2018-04-27T12:24:17.235Z,55.50
2018-04-27T12:26:45.015Z,53.10
2018-04-27T12:29:13.272Z,54.90
2018-04-27T12:31:40.893Z,54.90
2018-04-27T12:34:08.294Z,55.60
2018-04-27T12:36:35.843Z,55.30
2018-04-27T12:39:04.083Z,55.80
2018-04-27T12:41:31.585Z,55.80
2018-04-27T12:43:59.081Z,54.90
2018-04-27T12:46:26.575Z,55.80
2018-04-27T12:48:54.871Z,54.50
2018-04-27T12:51:23.122Z,55.20
2018-04-27T12:53:50.618Z,55.20
2018-04-27T12:56:18.097Z,55.70
2018-04-27T12:58:45.571Z,54.90
2018-04-27T13:01:13.061Z,53.20
2018-04-27T13:03:41.309Z,52.80
2018-04-27T13:06:08.752Z,52.70
2018-04-27T13:08:36.281Z,52.90
2018-04-27T13:11:03.809Z,51.20
2018-04-27T13:13:32.147Z,50.60
2018-04-27T13:15:59.638Z,50.50
2018-04-27T13:18:27.110Z,51.50
2018-04-27T13:20:55.379Z,50.10
2018-04-27T13:23:23.651Z,49.90
2018-04-27T13:25:51.925Z,48.60
2018-04-27T13:28:20.215Z,47.70
2018-04-27T13:30:48.457Z,48.40
2018-04-27T13:33:15.951Z,48.30
2018-04-27T13:35:43.976Z,48.00
2018-04-27T13:38:11.466Z,46.20
2018-04-27T13:40:38.934Z,46.50
2018-04-27T13:43:06.523Z,47.30
2018-04-27T13:45:34.006Z,47.20
2018-04-27T13:48:01.475Z,47.80
2018-04-27T13:50:28.962Z,47.40
2018-04-27T13:52:57.191Z,47.70
2018-04-27T13:55:24.681Z,47.60
2018-04-27T13:57:52.210Z,46.40
2018-04-27T14:00:19.684Z,46.60
2018-04-27T14:02:47.862Z,46.30
2018-04-27T14:05:15.477Z,45.70
2018-04-27T14:07:42.999Z,46.00
2018-04-27T14:10:10.507Z,46.60
2018-04-27T14:12:38.367Z,47.10
2018-04-27T14:15:05.848Z,47.50
2018-04-27T14:17:33.313Z,46.60
2018-04-27T14:20:00.796Z,46.80
2018-04-27T14:22:28.307Z,47.40
2018-04-27T14:24:55.809Z,46.20
2018-04-27T14:27:23.341Z,45.50
2018-04-27T14:29:50.875Z,44.80
2018-04-27T14:32:18.369Z,45.10
2018-04-27T14:34:45.833Z,45.80
2018-04-27T14:37:13.298Z,45.20
2018-04-27T14:39:40.804Z,44.10
2018-04-27T14:42:08.400Z,44.80
2018-04-27T14:44:35.887Z,45.10
2018-04-27T14:47:03.456Z,44.80
2018-04-27T14:49:31.785Z,45.20
2018-04-27T14:51:59.307Z,45.60
2018-04-27T14:54:26.894Z,46.40
2018-04-27T14:56:54.365Z,45.50
2018-04-27T14:59:22.707Z,44.70
2018-04-27T15:01:50.194Z,44.80
2018-04-27T15:04:17.708Z,44.20
2018-04-27T15:06:45.166Z,43.70
2018-04-27T15:09:12.677Z,43.30
2018-04-27T15:11:40.180Z,44.70
2018-04-27T15:14:07.792Z,44.80
2018-04-27T15:16:35.332Z,43.90
2018-04-27T15:19:02.817Z,43.80
2018-04-27T15:21:30.349Z,44.80
2018-04-27T15:23:57.845Z,45.20
2018-04-27T15:26:26.083Z,45.80
2018-04-27T15:28:53.577Z,46.00
2018-04-27T15:31:21.887Z,43.70
2018-04-27T15:33:49.735Z,43.50
2018-04-27T15:36:17.991Z,43.30
2018-04-27T15:38:45.471Z,43.30
2018-04-27T15:41:12.977Z,42.80
2018-04-27T15:43:40.457Z,44.20
2018-04-27T15:46:07.938Z,42.50
2018-04-27T15:48:35.479Z,42.30
2018-04-27T15:51:02.973Z,41.40
2018-04-27T15:53:30.492Z,41.90
2018-04-27T15:55:57.996Z,42.40
2018-04-27T15:58:25.476Z,42.00
2018-04-27T16:00:52.972Z,42.50
2018-04-27T16:03:20.449Z,43.50
2018-04-27T16:05:48.756Z,41.60
2018-04-27T16:08:16.251Z,41.60
2018-04-27T16:10:43.726Z,42.30
2018-04-27T16:13:20.501Z,41.10
2018-04-27T16:15:48.369Z,41.10
2018-04-27T16:18:15.846Z,39.90
2018-04-27T16:20:43.358Z,40.20
2018-04-27T16:23:10.833Z,41.00
2018-04-27T16:25:38.326Z,41.90
2018-04-27T16:28:05.838Z,42.80
2018-04-27T16:30:33.322Z,42.80
2018-04-27T16:33:02.010Z,42.60
2018-04-27T16:35:29.496Z,43.20
2018-04-27T16:37:56.984Z,42.50
2018-04-27T16:40:24.456Z,41.90
2018-04-27T16:42:51.958Z,41.60
2018-04-27T16:45:19.441Z,43.60
2018-04-27T16:47:46.945Z,45.00
2018-04-27T16:50:15.196Z,46.90
2018-04-27T16:52:42.683Z,46.90
2018-04-27T16:55:10.951Z,43.90
2018-04-27T16:57:38.421Z,43.80
2018-04-27T17:00:05.928Z,44.30
2018-04-27T17:02:33.399Z,44.20
2018-04-27T17:05:00.870Z,45.50
2018-04-27T17:07:28.440Z,45.30
2018-04-27T17:09:56.689Z,46.60
2018-04-27T17:12:24.173Z,46.60
2018-04-27T17:14:51.660Z,47.20
2018-04-27T17:17:19.148Z,48.20
2018-04-27T17:19:46.659Z,49.00
2018-04-27T17:22:14.134Z,49.50
2018-04-27T17:24:41.624Z,49.70
2018-04-27T17:27:09.131Z,50.70
2018-04-27T17:29:37.398Z,51.60
2018-04-27T17:32:04.901Z,51.40
2018-04-27T17:34:32.414Z,52.50
2018-04-27T17:37:00.149Z,52.70
2018-04-27T17:39:27.435Z,53.30
2018-04-27T17:41:56.436Z,53.70
2018-04-27T17:44:24.739Z,53.90
2018-04-27T17:46:52.201Z,53.90
2018-04-27T17:49:19.697Z,54.50
2018-04-27T17:51:47.213Z,54.80
2018-04-27T17:54:15.154Z,55.00
2018-04-27T17:56:42.665Z,54.40
2018-04-27T17:59:10.145Z,55.00
2018-04-27T18:01:37.635Z,55.50
2018-04-27T18:04:06.014Z,56.00
2018-04-27T18:06:33.489Z,56.00
2018-04-27T18:09:00.982Z,56.10
2018-04-27T18:11:28.560Z,56.60
2018-04-27T18:13:56.036Z,56.70
2018-04-27T18:16:24.294Z,57.60
2018-04-27T18:18:51.766Z,57.40
2018-04-27T18:21:20.034Z,58.40
2018-04-27T18:23:47.543Z,58.30
2018-04-27T18:26:15.046Z,58.40
2018-04-27T18:28:42.509Z,58.60
2018-04-27T18:31:09.997Z,59.30
2018-04-27T18:33:37.485Z,58.90
2018-04-27T18:36:04.981Z,59.50
2018-04-27T18:38:32.533Z,59.90
2018-04-27T18:41:00.007Z,60.20
2018-04-27T18:43:27.497Z,60.90
2018-04-27T18:45:55.000Z,61.20
2018-04-27T18:48:22.534Z,61.40
2018-04-27T18:50:50.925Z,61.20
2018-04-27T18:53:18.379Z,61.50
2018-04-27T18:55:45.895Z,61.60
2018-04-27T18:58:13.420Z,61.80
2018-04-27T19:00:40.923Z,62.30
2018-04-27T19:03:08.528Z,62.50
2018-04-27T19:05:37.360Z,62.60
2018-04-27T19:08:04.834Z,62.80
2018-04-27T19:10:33.246Z,63.40
2018-04-27T19:13:00.733Z,63.20
2018-04-27T19:15:28.249Z,63.50
2018-04-27T19:18:03.470Z,63.80
2018-04-27T19:20:32.592Z,64.60
2018-04-27T19:23:04.485Z,64.70
2018-04-27T19:25:32.814Z,65.00
2018-04-27T19:28:00.311Z,65.20
2018-04-27T19:30:29.689Z,66.50
2018-04-27T19:32:57.839Z,66.40
2018-04-27T19:35:25.303Z,68.80
2018-04-27T19:37:52.822Z,69.60
2018-04-27T19:40:21.839Z,71.10
2018-04-27T19:42:49.338Z,70.90
2018-04-27T19:45:16.870Z,72.10
2018-04-27T19:47:44.444Z,73.50
2018-04-27T19:50:12.367Z,73.50
2018-04-27T19:52:41.105Z,72.80
2018-04-27T19:55:09.446Z,72.50
2018-04-27T19:57:37.000Z,75.00
2018-04-27T20:00:04.510Z,76.10
2018-04-27T20:02:32.074Z,75.80
2018-04-27T20:04:59.580Z,76.10
2018-04-27T20:07:27.087Z,75.60
2018-04-27T20:09:54.601Z,75.10
2018-04-27T20:12:22.122Z,74.90
2018-04-27T20:14:50.417Z,75.00
2018-04-27T20:17:30.349Z,74.70
2018-04-27T20:19:58.658Z,74.70
2018-04-27T20:22:28.008Z,74.60
2018-04-27T20:25:07.496Z,74.80
2018-04-27T20:27:40.154Z,75.00
2018-04-27T20:30:11.148Z,75.10
2018-04-27T20:32:53.551Z,75.00
2018-04-27T20:35:21.198Z,75.20
2018-04-27T20:37:49.382Z,75.10
2018-04-27T20:40:16.860Z,75.00
2018-04-27T20:42:44.350Z,75.20
2018-04-27T20:45:19.214Z,75.30
2018-04-27T20:47:47.103Z,75.40
2018-04-27T20:50:14.577Z,75.60
2018-04-27T20:52:42.131Z,75.60
2018-04-27T20:55:14.050Z,75.60
2018-04-27T20:57:41.542Z,75.80
2018-04-27T21:00:09.044Z,76.00
2018-04-27T21:02:37.264Z,76.60
2018-04-27T21:05:04.732Z,76.50
2018-04-27T21:07:32.253Z,76.50
2018-04-27T21:09:59.757Z,76.70
2018-04-27T21:12:35.804Z,76.60
2018-04-27T21:15:07.874Z,76.90
2018-04-27T21:17:35.373Z,76.60
2018-04-27T21:20:03.632Z,76.90
2018-04-27T21:22:31.119Z,76.70
2018-04-27T21:24:58.624Z,77.50
2018-04-27T21:27:27.088Z,76.50
2018-04-27T21:29:54.588Z,76.70
2018-04-27T21:32:22.077Z,76.80
2018-04-27T21:34:49.553Z,76.90
2018-04-27T21:37:17.051Z,77.10
2018-04-27T21:39:44.532Z,77.30
2018-04-27T21:42:16.410Z,78.00
2018-04-27T21:44:44.704Z,77.80
2018-04-27T21:47:15.735Z,77.90
2018-04-27T21:49:44.137Z,78.00
2018-04-27T21:52:17.315Z,78.30
2018-04-27T21:54:45.533Z,78.60
2018-04-27T21:57:32.529Z,78.90
2018-04-27T22:00:25.568Z,79.10
2018-04-27T22:03:14.700Z,79.50
2018-04-27T22:05:43.077Z,79.80
2018-04-27T22:08:22.340Z,80.10
2018-04-27T22:10:49.888Z,80.40
2018-04-27T22:13:17.452Z,80.80
2018-04-27T22:15:45.006Z,81.20
2018-04-27T22:18:12.567Z,81.50
2018-04-27T22:20:44.105Z,81.90
2018-04-27T22:23:11.675Z,82.10
2018-04-27T22:25:40.168Z,82.10
2018-04-27T22:28:07.823Z,82.40
2018-04-27T22:30:37.116Z,82.50
2018-04-27T22:33:31.408Z,82.60
2018-04-27T22:36:05.501Z,82.90
2018-04-27T22:38:41.539Z,83.40
2018-04-27T22:41:09.921Z,83.40
2018-04-27T22:43:39.994Z,83.50
2018-04-27T22:46:12.429Z,83.50
2018-04-27T22:48:51.982Z,83.90
2018-04-27T22:51:22.939Z,83.80
2018-04-27T22:53:52.510Z,84.00
2018-04-27T22:56:27.615Z,84.20
2018-04-27T22:58:55.147Z,84.50
2018-04-27T23:01:22.820Z,84.60
2018-04-27T23:03:50.295Z,85.00
2018-04-27T23:06:17.769Z,85.10
2018-04-27T23:08:49.917Z,85.40
2018-04-27T23:11:24.710Z,85.20
2018-04-27T23:14:07.887Z,85.40
2018-04-27T23:16:35.384Z,85.60
2018-04-27T23:19:02.862Z,85.70
2018-04-27T23:21:52.903Z,85.70
2018-04-27T23:24:20.402Z,86.00
2018-04-27T23:27:06.421Z,86.20
2018-04-27T23:29:33.904Z,86.30
2018-04-27T23:32:01.392Z,86.40
2018-04-27T23:34:28.853Z,86.70
2018-04-27T23:36:59.118Z,86.70
2018-04-27T23:39:26.582Z,86.60
2018-04-27T23:41:54.089Z,86.80
2018-04-27T23:44:21.614Z,86.80
2018-04-27T23:46:49.862Z,86.80
2018-04-27T23:49:17.345Z,86.80
2018-04-27T23:51:45.710Z,86.90
2018-04-27T23:54:14.030Z,86.80
2018-04-27T23:56:42.790Z,86.80
2018-04-27T23:59:10.275Z,87.10
